createdAt,value
2019-04-21T00:02:18.628Z,27.02
2019-04-21T00:04:57.914Z,27.02
2019-04-21T00:07:39.289Z,27.04
2019-04-21T00:10:23.396Z,26.83
2019-04-21T00:12:47.240Z,26.85
2019-04-21T00:15:16.106Z,26.66
2019-04-21T00:17:36.952Z,26.66
2019-04-21T00:20:22.724Z,26.54
2019-04-21T00:22:53.580Z,26.54
2019-04-21T00:25:31.047Z,26.71
2019-04-21T00:28:21.960Z,26.71
2019-04-21T00:30:48.899Z,26.70
2019-04-21T00:33:06.957Z,26.80
2019-04-21T00:35:39.585Z,26.80
2019-04-21T00:38:29.135Z,26.69
2019-04-21T00:41:01.747Z,26.38
2019-04-21T00:43:27.982Z,26.48
2019-04-21T00:45:57.395Z,26.69
2019-04-21T00:48:45.129Z,26.86
2019-04-21T00:51:25.013Z,26.70
2019-04-21T00:53:58.500Z,26.60
2019-04-21T00:56:27.455Z,26.36
2019-04-21T00:58:59.806Z,27.06
2019-04-21T01:01:32.938Z,27.24
2019-04-21T01:06:42.766Z,27.07
2019-04-21T01:09:09.579Z,27.23
2019-04-21T01:11:50.549Z,27.42
2019-04-21T01:14:32.738Z,27.64
2019-04-21T01:17:02.302Z,27.69
2019-04-21T01:19:26.941Z,27.69
2019-04-21T01:21:40.121Z,27.88
2019-04-21T01:24:19.273Z,27.93
2019-04-21T01:26:56.793Z,27.99
2019-04-21T01:29:42.724Z,28.04
2019-04-21T01:32:19.667Z,28.04
2019-04-21T01:34:58.192Z,28.45
2019-04-21T01:37:36.087Z,28.45
2019-04-21T01:40:08.687Z,28.63
2019-04-21T01:42:32.704Z,29.28
2019-04-21T01:45:11.481Z,29.28
2019-04-21T01:47:41.903Z,29.33
2019-04-21T01:50:05.634Z,29.56
2019-04-21T01:52:57.564Z,29.56
2019-04-21T01:55:35.703Z,29.58
2019-04-21T01:58:11.007Z,29.65
2019-04-21T02:00:51.809Z,29.77
2019-04-21T02:06:06.095Z,29.85
2019-04-21T02:08:31.310Z,29.73
2019-04-21T02:11:12.591Z,29.93
2019-04-21T02:13:48.622Z,29.93
2019-04-21T02:16:16.977Z,30.04
2019-04-21T02:18:53.000Z,30.08
2019-04-21T02:21:17.798Z,30.05
2019-04-21T02:23:58.680Z,30.36
2019-04-21T02:26:37.537Z,30.36
2019-04-21T02:29:10.143Z,30.52
2019-04-21T02:31:53.461Z,30.22
2019-04-21T02:34:43.054Z,30.43
2019-04-21T02:37:05.519Z,30.43
2019-04-21T02:39:29.655Z,30.81
2019-04-21T02:42:05.333Z,30.81
2019-04-21T02:44:46.285Z,30.98
2019-04-21T02:47:07.045Z,30.98
2019-04-21T02:49:56.427Z,31.07
2019-04-21T02:57:22.936Z,31.25
2019-04-21T03:00:09.969Z,31.25
2019-04-21T03:02:55.410Z,31.13
2019-04-21T03:08:15.350Z,31.31
2019-04-21T03:10:53.235Z,31.31
2019-04-21T03:18:37.932Z,31.91
2019-04-21T03:21:07.573Z,31.64
2019-04-21T03:26:23.080Z,31.95
2019-04-21T03:28:43.455Z,32.06
2019-04-21T03:36:52.813Z,32.29
2019-04-21T03:38:55.386Z,32.40
2019-04-21T03:41:37.784Z,32.51
2019-04-21T03:44:07.596Z,32.30
2019-04-21T03:49:20.909Z,31.60
2019-04-21T03:51:59.343Z,32.05
2019-04-21T03:57:11.307Z,32.15
2019-04-21T03:59:25.801Z,31.92
2019-04-21T04:02:28.339Z,31.76
2019-04-21T04:05:11.032Z,32.27
2019-04-21T04:10:28.897Z,32.70
2019-04-21T04:12:50.559Z,32.71
2019-04-21T04:15:31.194Z,32.91
2019-04-21T04:18:04.241Z,32.91
2019-04-21T04:20:34.861Z,32.90
2019-04-21T04:23:10.397Z,32.90
2019-04-21T04:25:43.008Z,32.60
2019-04-21T04:28:19.123Z,33.32
2019-04-21T04:33:27.928Z,33.63
2019-04-21T04:41:55.045Z,33.46
2019-04-21T04:44:11.106Z,33.50
2019-04-21T04:46:45.583Z,33.34
2019-04-21T04:49:29.760Z,33.61
2019-04-21T04:54:37.132Z,33.72
2019-04-21T05:02:12.917Z,33.88
2019-04-21T05:04:47.384Z,33.98
2019-04-21T05:07:17.277Z,33.90
2019-04-21T05:09:47.292Z,33.93
2019-04-21T05:12:17.041Z,34.10
2019-04-21T05:14:55.270Z,34.19
2019-04-21T05:17:30.651Z,34.19
2019-04-21T05:22:29.123Z,34.16
2019-04-21T05:24:55.254Z,34.55
2019-04-21T05:27:38.070Z,34.30
2019-04-21T05:30:28.626Z,34.30
2019-04-21T05:33:22.279Z,34.19
2019-04-21T05:35:50.683Z,34.19
2019-04-21T05:38:40.690Z,34.46
2019-04-21T05:41:07.757Z,34.53
2019-04-21T05:43:50.341Z,34.37
2019-04-21T05:46:25.196Z,34.61
2019-04-21T05:49:05.846Z,34.21
2019-04-21T05:51:30.522Z,34.21
2019-04-21T05:54:14.931Z,34.42
2019-04-21T05:56:40.724Z,34.19
2019-04-21T05:59:12.074Z,34.14
2019-04-21T06:02:02.560Z,34.44
2019-04-21T06:04:38.823Z,34.44
2019-04-21T06:07:06.020Z,34.52
2019-04-21T06:09:40.983Z,34.89
2019-04-21T06:12:10.291Z,34.10
2019-04-21T06:14:46.844Z,34.45
2019-04-21T06:17:19.790Z,34.42
2019-04-21T06:19:57.546Z,34.72
2019-04-21T06:22:44.901Z,34.72
2019-04-21T06:27:32.749Z,34.43
2019-04-21T06:30:03.292Z,34.43
2019-04-21T06:32:47.125Z,34.65
2019-04-21T06:35:45.516Z,34.65
2019-04-21T06:38:05.783Z,35.22
2019-04-21T06:40:46.126Z,35.34
2019-04-21T06:43:27.352Z,35.32
2019-04-21T06:45:50.699Z,35.19
2019-04-21T06:48:24.634Z,35.19
2019-04-21T06:51:17.163Z,35.33
2019-04-21T06:53:42.564Z,35.33
2019-04-21T06:56:08.180Z,35.44
2019-04-21T06:58:35.584Z,35.39
2019-04-21T07:01:10.501Z,35.39
2019-04-21T07:03:49.370Z,35.28
2019-04-21T07:06:12.530Z,35.34
2019-04-21T07:08:53.265Z,35.53
2019-04-21T07:11:18.741Z,35.23
2019-04-21T07:14:14.833Z,35.23
2019-04-21T07:16:33.154Z,35.10
2019-04-21T07:19:12.505Z,35.10
2019-04-21T07:21:33.796Z,34.86
2019-04-21T07:24:14.142Z,34.85
2019-04-21T07:26:45.428Z,34.81
2019-04-21T07:31:55.843Z,34.97
2019-04-21T07:34:27.246Z,34.95
2019-04-21T07:36:55.881Z,35.07
2019-04-21T07:39:29.734Z,35.31
2019-04-21T07:41:59.617Z,35.23
2019-04-21T07:44:32.987Z,35.42
2019-04-21T07:47:11.557Z,35.22
2019-04-21T07:50:00.482Z,35.22
2019-04-21T07:52:49.290Z,35.56
2019-04-21T07:57:39.741Z,35.10
2019-04-21T08:00:29.647Z,35.10
2019-04-21T08:03:05.856Z,35.12
2019-04-21T08:05:35.539Z,35.12
2019-04-21T08:08:01.498Z,35.13
2019-04-21T08:10:39.216Z,35.12
2019-04-21T08:13:21.036Z,35.22
2019-04-21T08:16:04.683Z,35.41
2019-04-21T08:18:27.074Z,35.60
2019-04-21T08:20:54.482Z,35.41
2019-04-21T08:23:31.515Z,35.44
2019-04-21T08:26:06.085Z,35.53
2019-04-21T08:28:44.077Z,35.46
2019-04-21T08:31:18.428Z,35.47
2019-04-21T08:34:05.997Z,35.47
2019-04-21T08:36:24.929Z,35.87
2019-04-21T08:38:53.681Z,35.87
2019-04-21T08:41:24.275Z,36.03
2019-04-21T08:43:57.412Z,36.03
2019-04-21T08:46:39.194Z,35.85
2019-04-21T08:49:09.390Z,35.75
2019-04-21T08:52:04.084Z,35.52
2019-04-21T08:54:22.651Z,35.35
2019-04-21T08:57:20.142Z,35.35
2019-04-21T09:00:03.203Z,35.60
2019-04-21T09:03:00.375Z,36.20
2019-04-21T09:05:29.851Z,36.20
2019-04-21T09:08:05.275Z,35.82
2019-04-21T09:10:39.166Z,35.87
2019-04-21T09:13:14.922Z,35.55
2019-04-21T09:15:41.590Z,35.81
2019-04-21T09:18:13.366Z,35.94
2019-04-21T09:21:00.052Z,35.94
2019-04-21T09:23:26.119Z,35.92
2019-04-21T09:25:57.398Z,35.95
2019-04-21T09:28:27.266Z,36.11
2019-04-21T09:30:55.979Z,36.09
2019-04-21T09:33:28.110Z,35.87
2019-04-21T09:36:02.604Z,35.87
2019-04-21T09:38:37.046Z,35.67
2019-04-21T09:41:06.677Z,35.65
2019-04-21T09:43:43.701Z,35.65
2019-04-21T09:46:11.828Z,35.60
2019-04-21T09:48:52.813Z,35.47
2019-04-21T09:51:17.851Z,35.50
2019-04-21T09:53:57.238Z,35.50
2019-04-21T09:56:31.202Z,35.59
2019-04-21T09:59:10.161Z,35.80
2019-04-21T10:01:49.148Z,35.42
2019-04-21T10:04:07.541Z,35.42
2019-04-21T10:06:39.623Z,35.63
2019-04-21T10:09:14.802Z,35.81
2019-04-21T10:11:45.914Z,35.71
2019-04-21T10:14:18.068Z,35.94
2019-04-21T10:17:06.353Z,35.51
2019-04-21T10:19:37.738Z,35.77
2019-04-21T10:22:10.588Z,35.77
2019-04-21T10:24:44.525Z,35.62
2019-04-21T10:27:17.167Z,35.62
2019-04-21T10:29:50.485Z,36.08
2019-04-21T10:32:25.006Z,36.08
2019-04-21T10:34:56.922Z,36.07
2019-04-21T10:37:42.898Z,36.07
2019-04-21T10:40:03.390Z,35.97
2019-04-21T10:42:35.449Z,35.85
2019-04-21T10:45:07.645Z,35.85
2019-04-21T10:47:40.928Z,35.52
2019-04-21T10:50:13.191Z,35.59
2019-04-21T10:53:22.928Z,35.73
2019-04-21T10:56:11.538Z,35.73
2019-04-21T10:58:38.283Z,35.71
2019-04-21T11:01:15.098Z,35.70
2019-04-21T11:03:53.242Z,35.71
2019-04-21T11:06:26.394Z,35.55
2019-04-21T11:09:01.051Z,35.82
2019-04-21T11:11:32.355Z,35.78
2019-04-21T11:14:06.468Z,35.89
2019-04-21T11:16:39.224Z,35.89
2019-04-21T11:19:11.846Z,35.95
2019-04-21T11:21:45.136Z,35.95
2019-04-21T11:24:18.160Z,35.70
2019-04-21T11:26:49.821Z,35.76
2019-04-21T11:29:23.241Z,35.98
2019-04-21T11:31:56.763Z,35.82
2019-04-21T11:34:29.293Z,35.83
2019-04-21T11:37:01.905Z,35.74
2019-04-21T11:39:42.109Z,35.72
2019-04-21T11:42:23.728Z,35.84
2019-04-21T11:44:55.809Z,35.86
2019-04-21T11:47:36.409Z,35.70
2019-04-21T11:50:08.260Z,35.67
2019-04-21T11:52:41.049Z,35.81
2019-04-21T11:55:14.283Z,35.83
2019-04-21T11:57:48.646Z,35.84
2019-04-21T12:00:19.823Z,35.81
2019-04-21T12:02:53.294Z,35.75
2019-04-21T12:05:25.496Z,35.80
2019-04-21T12:07:58.541Z,35.82
2019-04-21T12:10:31.503Z,35.88
2019-04-21T12:13:04.636Z,35.84
2019-04-21T12:15:37.184Z,35.82
2019-04-21T12:18:10.019Z,35.81
2019-04-21T12:20:43.041Z,35.76
2019-04-21T12:23:14.732Z,35.60
2019-04-21T12:25:49.442Z,35.60
2019-04-21T12:28:21.853Z,35.61
2019-04-21T12:30:55.799Z,35.62
2019-04-21T12:33:45.744Z,35.63
2019-04-21T12:36:17.848Z,35.60
2019-04-21T12:38:55.559Z,35.66
2019-04-21T12:41:24.524Z,35.52
2019-04-21T12:43:57.007Z,35.48
2019-04-21T12:46:29.883Z,35.49
2019-04-21T12:49:02.163Z,35.49
2019-04-21T12:51:35.604Z,35.39
2019-04-21T12:54:07.998Z,35.39
2019-04-21T12:56:41.172Z,35.34
2019-04-21T12:59:13.119Z,35.34
2019-04-21T13:01:45.304Z,35.27
2019-04-21T13:04:17.730Z,35.20
2019-04-21T13:06:49.840Z,35.20
2019-04-21T13:09:22.237Z,34.73
2019-04-21T13:11:55.150Z,34.73
2019-04-21T13:14:27.058Z,34.63
2019-04-21T13:16:59.415Z,34.65
2019-04-21T13:19:31.506Z,34.55
2019-04-21T13:22:03.837Z,34.55
2019-04-21T13:24:35.852Z,34.59
2019-04-21T13:27:09.406Z,34.65
2019-04-21T13:29:41.958Z,34.60
2019-04-21T13:32:14.371Z,34.31
2019-04-21T13:34:47.750Z,34.08
2019-04-21T13:37:19.480Z,34.07
2019-04-21T13:40:32.023Z,34.07
2019-04-21T13:42:48.549Z,34.02
2019-04-21T13:45:18.349Z,33.91
2019-04-21T13:47:52.558Z,33.91
2019-04-21T13:50:25.471Z,33.86
2019-04-21T13:52:58.671Z,33.89
2019-04-21T13:55:31.759Z,33.89
2019-04-21T13:58:04.292Z,33.81
2019-04-21T14:00:35.930Z,33.81
2019-04-21T14:03:10.440Z,33.84
2019-04-21T14:05:42.334Z,33.75
2019-04-21T14:08:15.674Z,33.75
2019-04-21T14:10:49.355Z,33.68
2019-04-21T14:13:22.523Z,33.65
2019-04-21T14:15:54.228Z,33.63
2019-04-21T14:18:28.779Z,33.63
2019-04-21T14:21:00.998Z,33.55
2019-04-21T14:23:40.547Z,33.48
2019-04-21T14:26:08.582Z,33.49
2019-04-21T14:28:41.049Z,33.41
2019-04-21T14:31:12.559Z,33.37
2019-04-21T14:33:46.294Z,33.37
2019-04-21T14:36:18.864Z,33.38
2019-04-21T14:38:52.260Z,33.30
2019-04-21T14:41:24.345Z,33.26
2019-04-21T14:44:00.596Z,33.26
2019-04-21T14:46:51.575Z,33.26
2019-04-21T14:49:31.039Z,33.22
2019-04-21T14:52:09.063Z,33.14
2019-04-21T14:54:50.935Z,32.99
2019-04-21T14:57:45.189Z,32.99
2019-04-21T15:00:19.008Z,32.99
2019-04-21T15:02:51.953Z,33.00
2019-04-21T15:05:25.195Z,33.00
2019-04-21T15:07:59.291Z,32.93
2019-04-21T15:10:33.430Z,32.93
2019-04-21T15:13:05.709Z,32.70
2019-04-21T15:15:38.065Z,32.68
2019-04-21T15:18:12.475Z,32.78
2019-04-21T15:20:45.716Z,32.82
2019-04-21T15:23:18.485Z,32.70
2019-04-21T15:25:50.335Z,32.76
2019-04-21T15:28:22.043Z,32.62
2019-04-21T15:30:54.789Z,32.61
2019-04-21T15:33:30.554Z,32.61
2019-04-21T15:36:05.052Z,32.57
2019-04-21T15:38:37.820Z,32.47
2019-04-21T15:41:10.881Z,32.49
2019-04-21T15:43:42.990Z,32.40
2019-04-21T15:46:15.151Z,32.40
2019-04-21T15:48:46.813Z,32.36
2019-04-21T15:51:19.724Z,32.36
2019-04-21T15:53:51.989Z,32.48
2019-04-21T15:57:00.874Z,32.45
2019-04-21T15:59:54.914Z,32.44
2019-04-21T16:02:40.359Z,32.43
2019-04-21T16:05:15.117Z,32.35
2019-04-21T16:07:47.935Z,32.39
2019-04-21T16:10:30.878Z,32.23
2019-04-21T16:12:53.972Z,32.24
2019-04-21T16:15:26.306Z,32.24
2019-04-21T16:17:59.249Z,32.13
2019-04-21T16:20:32.283Z,32.13
2019-04-21T16:23:04.877Z,32.15
2019-04-21T16:25:36.938Z,32.22
2019-04-21T16:28:09.413Z,32.22
2019-04-21T16:30:42.550Z,32.39
2019-04-21T16:33:15.885Z,32.30
2019-04-21T16:35:47.630Z,32.30
2019-04-21T16:38:19.781Z,32.11
2019-04-21T16:40:57.366Z,32.15
2019-04-21T16:43:29.097Z,31.96
2019-04-21T16:46:01.399Z,31.96
2019-04-21T16:48:33.906Z,31.96
2019-04-21T16:51:07.817Z,31.98
2019-04-21T16:53:46.113Z,31.98
2019-04-21T16:56:24.820Z,31.87
2019-04-21T16:59:06.387Z,31.87
2019-04-21T17:01:38.463Z,31.87
2019-04-21T17:04:12.668Z,31.61
2019-04-21T17:06:45.098Z,31.42
2019-04-21T17:09:17.068Z,31.96
2019-04-21T17:11:53.633Z,32.26
2019-04-21T17:14:39.192Z,32.27
2019-04-21T17:17:19.828Z,32.27
2019-04-21T17:19:37.039Z,31.98
2019-04-21T17:22:05.732Z,31.98
2019-04-21T17:24:38.035Z,31.93
2019-04-21T17:27:11.106Z,31.97
2019-04-21T17:29:43.122Z,31.74
2019-04-21T17:32:16.434Z,31.74
2019-04-21T17:34:49.914Z,31.73
2019-04-21T17:37:25.017Z,31.73
2019-04-21T17:39:56.862Z,31.81
2019-04-21T17:42:36.981Z,31.73
2019-04-21T17:45:03.528Z,31.81
2019-04-21T17:47:45.770Z,31.81
2019-04-21T17:50:27.611Z,31.74
2019-04-21T17:53:10.089Z,31.74
2019-04-21T17:55:40.906Z,31.81
2019-04-21T17:58:27.870Z,31.82
2019-04-21T18:03:46.190Z,31.64
2019-04-21T18:06:07.490Z,31.64
2019-04-21T18:08:50.665Z,31.62
2019-04-21T18:11:10.175Z,31.84
2019-04-21T18:13:35.657Z,31.84
2019-04-21T18:16:19.223Z,31.60
2019-04-21T18:18:41.265Z,31.54
2019-04-21T18:21:20.891Z,31.54
2019-04-21T18:24:07.376Z,31.61
2019-04-21T18:26:40.581Z,31.28
2019-04-21T18:29:05.495Z,31.28
2019-04-21T18:31:43.143Z,31.26
2019-04-21T18:34:48.360Z,31.53
2019-04-21T18:37:42.909Z,31.53
2019-04-21T18:40:18.797Z,31.48
2019-04-21T18:43:37.817Z,31.40
2019-04-21T18:46:20.569Z,31.30
2019-04-21T18:49:04.395Z,31.25
2019-04-21T18:52:02.261Z,31.25
2019-04-21T18:54:47.240Z,31.08
2019-04-21T18:57:10.824Z,31.15
2019-04-21T18:59:40.191Z,31.02
2019-04-21T19:02:14.886Z,31.05
2019-04-21T19:04:46.024Z,31.05
2019-04-21T19:07:33.299Z,31.09
2019-04-21T19:10:23.724Z,31.05
2019-04-21T19:13:16.027Z,31.01
2019-04-21T19:15:15.702Z,30.96
2019-04-21T19:20:26.073Z,30.93
2019-04-21T19:23:00.316Z,30.93
2019-04-21T19:25:31.464Z,30.88
2019-04-21T19:28:09.737Z,30.82
2019-04-21T19:30:50.813Z,30.93
2019-04-21T19:33:22.431Z,30.89
2019-04-21T19:35:37.221Z,30.99
2019-04-21T19:38:12.268Z,31.07
2019-04-21T19:40:56.844Z,31.09
2019-04-21T19:43:35.809Z,31.06
2019-04-21T19:46:09.786Z,31.02
2019-04-21T19:48:44.590Z,30.92
2019-04-21T19:51:15.047Z,30.96
2019-04-21T19:53:45.848Z,31.02
2019-04-21T19:56:11.981Z,31.07
2019-04-21T19:58:46.030Z,30.88
2019-04-21T20:01:17.525Z,31.04
2019-04-21T20:03:55.501Z,31.33
2019-04-21T20:06:44.077Z,31.33
2019-04-21T20:09:17.756Z,30.96
2019-04-21T20:11:52.235Z,30.96
2019-04-21T20:16:56.715Z,30.78
2019-04-21T20:19:16.183Z,30.87
2019-04-21T20:21:49.199Z,30.81
2019-04-21T20:24:26.584Z,30.81
2019-04-21T20:27:03.479Z,30.86
2019-04-21T20:29:49.948Z,30.86
2019-04-21T20:32:29.010Z,30.90
2019-04-21T20:35:01.371Z,30.89
2019-04-21T20:37:25.235Z,30.81
2019-04-21T20:39:53.396Z,30.92
2019-04-21T20:42:28.028Z,30.83
2019-04-21T20:45:22.067Z,30.83
2019-04-21T20:47:34.954Z,30.91
2019-04-21T20:50:12.636Z,30.85
2019-04-21T20:52:56.902Z,30.86
2019-04-21T20:55:19.365Z,30.86
2019-04-21T20:57:51.742Z,30.80
2019-04-21T21:00:34.004Z,30.75
2019-04-21T21:03:06.997Z,30.75
2019-04-21T21:05:37.570Z,30.76
2019-04-21T21:08:18.005Z,30.65
2019-04-21T21:10:43.928Z,30.64
2019-04-21T21:13:26.443Z,30.81
2019-04-21T21:16:09.543Z,30.81
2019-04-21T21:18:48.148Z,30.79
2019-04-21T21:21:06.371Z,30.76
2019-04-21T21:23:40.548Z,30.76
2019-04-21T21:26:18.826Z,30.81
2019-04-21T21:28:38.939Z,30.92
2019-04-21T21:31:25.271Z,30.92
2019-04-21T21:33:59.006Z,30.81
2019-04-21T21:36:26.506Z,30.68
2019-04-21T21:39:01.371Z,30.76
2019-04-21T21:41:22.349Z,30.83
2019-04-21T21:43:58.071Z,30.94
2019-04-21T21:46:43.033Z,30.83
2019-04-21T21:49:03.832Z,30.83
2019-04-21T21:51:39.848Z,30.83
2019-04-21T21:54:03.313Z,30.83
2019-04-21T21:56:48.075Z,30.64
2019-04-21T21:59:22.666Z,30.67
2019-04-21T22:01:56.104Z,30.67
2019-04-21T22:04:30.740Z,30.52
2019-04-21T22:07:09.238Z,30.52
2019-04-21T22:09:34.637Z,30.59
2019-04-21T22:12:08.701Z,30.59
2019-04-21T22:14:45.538Z,30.58
2019-04-21T22:17:31.750Z,30.53
2019-04-21T22:20:17.102Z,30.53
2019-04-21T22:22:41.726Z,30.38
2019-04-21T22:25:09.838Z,30.25
2019-04-21T22:27:36.925Z,30.35
2019-04-21T22:30:13.050Z,30.35
2019-04-21T22:32:51.809Z,30.16
2019-04-21T22:35:28.464Z,30.10
2019-04-21T22:38:10.819Z,30.11
2019-04-21T22:40:44.026Z,30.05
2019-04-21T22:43:11.629Z,30.05
2019-04-21T22:45:35.576Z,30.04
2019-04-21T22:48:14.036Z,29.86
2019-04-21T22:50:42.436Z,29.86
2019-04-21T22:53:17.210Z,30.06
2019-04-21T22:55:49.519Z,30.11
2019-04-21T22:58:25.740Z,30.15
2019-04-21T23:00:58.411Z,30.05
2019-04-21T23:03:30.317Z,30.05
2019-04-21T23:06:10.985Z,29.96
2019-04-21T23:08:40.537Z,29.96
2019-04-21T23:11:12.375Z,29.93
2019-04-21T23:13:45.113Z,29.97
2019-04-21T23:16:21.413Z,29.93
2019-04-21T23:19:13.094Z,29.80
2019-04-21T23:21:41.364Z,29.71
2019-04-21T23:24:15.144Z,29.57
2019-04-21T23:26:50.716Z,29.66
2019-04-21T23:29:35.608Z,29.61
2019-04-21T23:31:55.125Z,29.41
2019-04-21T23:34:19.897Z,29.05
2019-04-21T23:36:53.218Z,28.95
2019-04-21T23:39:23.710Z,29.22
2019-04-21T23:41:55.891Z,29.19
2019-04-21T23:44:28.185Z,28.88
2019-04-21T23:47:04.796Z,29.04
2019-04-21T23:49:42.974Z,29.04
2019-04-21T23:52:10.980Z,29.26
2019-04-21T23:54:41.073Z,29.26
2019-04-21T23:57:23.444Z,28.97
2019-04-21T23:59:53.410Z,28.66
